Terminal Aerodrome Forecast
Issued by NWS Blacksburg, VA

Home | Current Version | Previous Version | Text Only | Print | Product List | Glossary On
Versions: 1 2 3 4 5 6 7 8 9 10 11 12 13 14 15 16 17 18 19 20 21 22 23
000
FTUS41 KRNK 200520
TAFLYH
TAF
KLYH 200520Z 2006/2106 00000KT P6SM SCT080 OVC150
     FM201100 10004KT P6SM -RA OVC070
     FM201300 11005KT 4SM -RA BR OVC025
      TEMPO 2014/2017 1SM RA BR OVC015
     FM201900 VRB03KT 4SM -RA BR SCT005 OVC013
     FM202300 00000KT 3SM -DZ BR OVC004=

USA.gov is the U.S. government's official web portal to all federal, state and local government web resources and services.